createdAt,value
2019-04-22T00:02:10.512Z,95006.17
2019-04-22T00:04:49.877Z,95006.44
2019-04-22T00:07:28.621Z,95006.44
2019-04-22T00:10:04.816Z,95008.33
2019-04-22T00:12:34.857Z,95002.13
2019-04-22T00:15:02.511Z,95002.13
2019-04-22T00:17:48.219Z,94989.55
2019-04-22T00:22:32.113Z,94989.07
2019-04-22T00:25:08.051Z,94988.79
2019-04-22T00:27:40.754Z,94987.98
2019-04-22T00:30:13.495Z,94985.27
2019-04-22T00:32:47.181Z,94978.69
2019-04-22T00:35:11.557Z,94978.09
2019-04-22T00:37:43.698Z,94979.63
2019-04-22T00:40:21.306Z,94979.32
2019-04-22T00:42:47.727Z,94979.30
2019-04-22T00:45:21.868Z,94971.44
2019-04-22T00:47:44.809Z,94971.44
2019-04-22T00:50:25.459Z,94972.70
2019-04-22T00:52:48.816Z,94972.14
2019-04-22T00:55:23.057Z,94971.30
2019-04-22T00:57:46.242Z,94972.09
2019-04-22T01:00:21.309Z,94970.23
2019-04-22T01:02:58.858Z,94963.41
2019-04-22T01:05:21.515Z,94964.41
2019-04-22T01:07:49.196Z,94961.80
2019-04-22T01:10:25.265Z,94958.98
2019-04-22T01:12:51.763Z,94961.68
2019-04-22T01:15:23.411Z,94962.61
2019-04-22T01:17:52.565Z,94956.97
2019-04-22T01:20:45.730Z,94960.13
2019-04-22T01:22:52.161Z,94953.63
2019-04-22T01:25:20.526Z,94952.44
2019-04-22T01:27:46.235Z,94947.67
2019-04-22T01:30:16.469Z,94946.59
2019-04-22T01:32:38.486Z,94941.28
2019-04-22T01:35:12.993Z,94941.50
2019-04-22T01:37:48.438Z,94943.74
2019-04-22T01:40:31.722Z,94934.25
2019-04-22T01:43:03.838Z,94931.85
2019-04-22T01:45:36.295Z,94929.54
2019-04-22T01:47:58.447Z,94926.42
2019-04-22T01:50:33.759Z,94925.83
2019-04-22T01:53:08.614Z,94922.05
2019-04-22T01:55:38.924Z,94921.73
2019-04-22T01:57:59.628Z,94921.15
2019-04-22T02:00:38.544Z,94915.14
2019-04-22T02:03:07.265Z,94913.96
2019-04-22T02:05:35.807Z,94909.98
2019-04-22T02:08:19.836Z,94913.69
2019-04-22T02:10:44.575Z,94909.72
2019-04-22T02:13:06.991Z,94915.44
2019-04-22T02:15:46.504Z,94907.69
2019-04-22T02:18:18.052Z,94901.37
2019-04-22T02:20:37.320Z,94904.53
2019-04-22T02:23:39.904Z,94897.80
2019-04-22T02:25:56.101Z,94899.10
2019-04-22T02:31:13.875Z,94893.23
2019-04-22T02:38:48.869Z,94883.82
2019-04-22T02:43:56.863Z,94879.96
2019-04-22T02:48:48.253Z,94871.59
2019-04-22T02:51:06.079Z,94877.02
2019-04-22T02:54:13.948Z,94870.19
2019-04-22T02:56:12.222Z,94872.20
2019-04-22T03:01:05.488Z,94863.89
2019-04-22T03:16:17.859Z,94862.84
2019-04-22T03:18:57.266Z,94850.98
2019-04-22T03:21:14.644Z,94850.80
2019-04-22T03:23:45.489Z,94848.81
2019-04-22T03:26:23.314Z,94847.50
2019-04-22T03:28:47.727Z,94850.64
2019-04-22T03:47:10.962Z,94834.50
2019-04-22T04:02:10.700Z,94820.77
2019-04-22T04:04:35.448Z,94816.35
2019-04-22T04:07:14.931Z,94817.42
2019-04-22T04:12:04.420Z,94816.05
2019-04-22T04:14:35.975Z,94815.34
2019-04-22T04:17:08.945Z,94818.45
2019-04-22T04:22:09.789Z,94815.27
2019-04-22T04:24:59.911Z,94815.05
2019-04-22T04:27:18.331Z,94815.58
2019-04-22T04:37:28.192Z,94810.64
2019-04-22T04:39:43.340Z,94807.30
2019-04-22T04:42:23.482Z,94798.01
2019-04-22T04:44:59.337Z,94805.94
2019-04-22T04:49:54.665Z,94800.41
2019-04-22T04:52:39.720Z,94792.95
2019-04-22T04:54:48.277Z,94786.94
2019-04-22T05:00:11.152Z,94789.84
2019-04-22T05:02:19.805Z,94793.70
2019-04-22T05:05:00.127Z,94782.52
2019-04-22T05:07:24.438Z,94786.48
2019-04-22T05:09:46.981Z,94781.36
2019-04-22T05:12:24.559Z,94782.47
2019-04-22T05:14:46.469Z,94778.93
2019-04-22T05:17:18.407Z,94783.80
2019-04-22T05:20:06.652Z,94781.64
2019-04-22T05:22:14.949Z,94778.61
2019-04-22T05:24:42.411Z,94775.58
2019-04-22T05:27:21.732Z,94773.85
2019-04-22T05:30:03.669Z,94773.50
2019-04-22T05:32:17.597Z,94770.78
2019-04-22T05:34:48.601Z,94773.54
2019-04-22T05:37:20.662Z,94775.59
2019-04-22T05:39:51.354Z,94770.47
2019-04-22T05:42:14.017Z,94769.70
2019-04-22T05:44:49.743Z,94767.23
2019-04-22T05:47:19.467Z,94763.80
2019-04-22T05:49:47.720Z,94761.79
2019-04-22T05:54:47.043Z,94763.64
2019-04-22T05:57:20.262Z,94766.08
2019-04-22T05:59:52.230Z,94752.22
2019-04-22T06:02:31.408Z,94759.08
2019-04-22T06:04:53.998Z,94755.38
2019-04-22T06:07:22.729Z,94758.08
2019-04-22T06:09:53.418Z,94749.69
2019-04-22T06:12:17.380Z,94749.69
2019-04-22T06:14:56.607Z,94744.88
2019-04-22T06:17:24.736Z,94754.12
2019-04-22T06:19:57.629Z,94746.03
2019-04-22T06:25:06.407Z,94744.88
2019-04-22T06:27:30.924Z,94750.23
2019-04-22T06:30:01.856Z,94748.33
2019-04-22T06:32:40.120Z,94745.64
2019-04-22T06:35:11.386Z,94744.42
2019-04-22T06:37:56.208Z,94745.53
2019-04-22T06:40:03.477Z,94742.50
2019-04-22T06:45:07.649Z,94745.25
2019-04-22T06:47:49.184Z,94744.56
2019-04-22T06:49:59.230Z,94744.34
2019-04-22T06:52:35.405Z,94737.09
2019-04-22T06:57:30.942Z,94740.55
2019-04-22T07:00:07.109Z,94741.41
2019-04-22T07:02:53.469Z,94737.63
2019-04-22T07:05:00.975Z,94734.47
2019-04-22T07:07:31.548Z,94733.05
2019-04-22T07:10:18.340Z,94738.96
2019-04-22T07:12:36.480Z,94732.20
2019-04-22T07:15:16.200Z,94726.02
2019-04-22T07:17:45.478Z,94732.78
2019-04-22T07:20:04.042Z,94719.01
2019-04-22T07:22:33.798Z,94728.70
2019-04-22T07:25:03.115Z,94726.09
2019-04-22T07:27:44.063Z,94722.59
2019-04-22T07:30:15.290Z,94728.67
2019-04-22T07:33:00.692Z,94730.61
2019-04-22T07:35:12.927Z,94734.56
2019-04-22T07:40:09.838Z,94725.52
2019-04-22T07:42:41.736Z,94731.31
2019-04-22T07:45:11.415Z,94727.06
2019-04-22T07:48:02.823Z,94724.30
2019-04-22T07:52:41.309Z,94714.30
2019-04-22T07:55:05.589Z,94713.36
2019-04-22T07:57:44.431Z,94703.04
2019-04-22T08:00:17.530Z,94709.66
2019-04-22T08:05:12.711Z,94700.02
2019-04-22T08:08:07.181Z,94697.98
2019-04-22T08:10:23.834Z,94697.82
2019-04-22T08:12:55.036Z,94697.30
2019-04-22T08:15:20.053Z,94697.09
2019-04-22T08:17:57.825Z,94700.86
2019-04-22T08:20:25.251Z,94688.87
2019-04-22T08:22:52.213Z,94691.41
2019-04-22T08:25:17.996Z,94698.59
2019-04-22T08:27:53.361Z,94692.66
2019-04-22T08:30:26.427Z,94689.27
2019-04-22T08:32:53.353Z,94689.50
2019-04-22T08:35:29.588Z,94680.63
2019-04-22T08:42:58.634Z,94671.02
2019-04-22T08:45:29.548Z,94676.28
2019-04-22T08:47:47.982Z,94678.38
2019-04-22T08:53:00.633Z,94674.59
2019-04-22T08:55:29.610Z,94676.00
2019-04-22T09:00:33.872Z,94664.19
2019-04-22T09:03:00.750Z,94660.91
2019-04-22T09:05:42.321Z,94658.03
2019-04-22T09:08:00.550Z,94656.93
2019-04-22T09:10:33.479Z,94658.81
2019-04-22T09:13:02.430Z,94655.11
2019-04-22T09:15:31.032Z,94652.88
2019-04-22T09:18:02.029Z,94657.80
2019-04-22T09:20:32.671Z,94649.97
2019-04-22T09:25:34.193Z,94648.95
2019-04-22T09:28:03.387Z,94646.89
2019-04-22T09:33:07.845Z,94652.09
2019-04-22T09:35:37.488Z,94649.96
2019-04-22T09:38:23.745Z,94648.77
2019-04-22T09:40:34.645Z,94644.59
2019-04-22T09:43:13.121Z,94644.47
2019-04-22T09:45:34.366Z,94641.19
2019-04-22T09:48:16.834Z,94636.16
2019-04-22T09:50:46.421Z,94643.77
2019-04-22T09:53:08.723Z,94631.83
2019-04-22T09:55:45.086Z,94630.99
2019-04-22T09:58:09.449Z,94627.63
2019-04-22T10:01:00.187Z,94625.72
2019-04-22T10:03:19.885Z,94620.05
2019-04-22T10:06:07.954Z,94619.78
2019-04-22T10:08:36.585Z,94611.02
2019-04-22T10:11:01.644Z,94609.83
2019-04-22T10:13:32.001Z,94607.02
2019-04-22T10:15:54.790Z,94613.75
2019-04-22T10:18:29.211Z,94604.70
2019-04-22T10:20:55.195Z,94605.13
2019-04-22T10:23:25.314Z,94615.90
2019-04-22T10:25:59.116Z,94607.13
2019-04-22T10:28:35.681Z,94600.41
2019-04-22T10:30:52.190Z,94600.77
2019-04-22T10:33:21.940Z,94592.92
2019-04-22T10:35:32.556Z,94590.61
2019-04-22T10:38:01.464Z,94590.07
2019-04-22T10:40:34.704Z,94584.33
2019-04-22T10:43:05.432Z,94583.11
2019-04-22T10:45:42.034Z,94577.64
2019-04-22T10:48:12.357Z,94562.62
2019-04-22T10:50:43.261Z,94560.48
2019-04-22T10:53:13.391Z,94560.49
2019-04-22T10:55:45.143Z,94562.30
2019-04-22T10:58:14.840Z,94560.09
2019-04-22T11:00:45.381Z,94550.19
2019-04-22T11:03:16.250Z,94549.66
2019-04-22T11:05:48.295Z,94548.48
2019-04-22T11:08:26.018Z,94540.39
2019-04-22T11:11:04.833Z,94536.40
2019-04-22T11:13:20.113Z,94531.34
2019-04-22T11:15:50.962Z,94523.62
2019-04-22T11:18:20.305Z,94514.40
2019-04-22T11:20:49.539Z,94523.64
2019-04-22T11:23:18.756Z,94530.75
2019-04-22T11:25:48.070Z,94522.17
2019-04-22T11:28:17.994Z,94519.61
2019-04-22T11:30:48.227Z,94535.57
2019-04-22T11:33:18.424Z,94512.02
2019-04-22T11:35:48.018Z,94517.06
2019-04-22T11:38:19.083Z,94510.67
2019-04-22T11:40:53.533Z,94508.97
2019-04-22T11:43:19.951Z,94505.61
2019-04-22T11:45:51.224Z,94510.28
2019-04-22T11:48:21.458Z,94492.66
2019-04-22T11:50:51.641Z,94509.27
2019-04-22T11:53:20.745Z,94497.24
2019-04-22T11:55:50.831Z,94501.05
2019-04-22T11:58:21.047Z,94495.67
2019-04-22T12:00:51.946Z,94507.17
2019-04-22T12:03:22.923Z,94494.45
2019-04-22T12:05:52.604Z,94499.48
2019-04-22T12:08:22.818Z,94489.44
2019-04-22T12:10:57.117Z,94486.67
2019-04-22T12:13:24.024Z,94483.61
2019-04-22T12:15:53.429Z,94470.38
2019-04-22T12:18:22.874Z,94489.83
2019-04-22T12:20:53.122Z,94468.28
2019-04-22T12:23:23.138Z,94470.28
2019-04-22T12:26:01.278Z,94458.83
2019-04-22T12:28:23.317Z,94459.17
2019-04-22T12:30:53.502Z,94454.89
2019-04-22T12:33:23.468Z,94449.88
2019-04-22T12:35:52.937Z,94443.87
2019-04-22T12:38:22.213Z,94449.43
2019-04-22T12:40:58.479Z,94439.81
2019-04-22T12:43:25.672Z,94442.47
2019-04-22T12:45:54.296Z,94439.03
2019-04-22T12:48:23.410Z,94418.86
2019-04-22T12:50:55.993Z,94419.00
2019-04-22T12:53:26.324Z,94431.98
2019-04-22T12:55:55.478Z,94434.31
2019-04-22T12:58:25.538Z,94413.28
2019-04-22T13:00:54.983Z,94418.80
2019-04-22T13:03:24.521Z,94406.64
2019-04-22T13:05:54.133Z,94409.06
2019-04-22T13:08:23.597Z,94411.89
2019-04-22T13:10:59.313Z,94406.44
2019-04-22T13:13:25.115Z,94413.59
2019-04-22T13:15:55.079Z,94407.05
2019-04-22T13:18:35.491Z,94389.32
2019-04-22T13:20:56.662Z,94403.44
2019-04-22T13:23:25.785Z,94394.09
2019-04-22T13:25:56.746Z,94388.09
2019-04-22T13:28:27.225Z,94379.93
2019-04-22T13:30:57.513Z,94376.66
2019-04-22T13:33:28.506Z,94384.18
2019-04-22T13:35:59.261Z,94375.02
2019-04-22T13:38:29.082Z,94387.72
2019-04-22T13:41:14.054Z,94378.39
2019-04-22T13:43:31.110Z,94378.07
2019-04-22T13:46:01.800Z,94370.61
2019-04-22T13:48:52.771Z,94364.70
2019-04-22T13:51:33.945Z,94369.92
2019-04-22T13:54:32.932Z,94372.37
2019-04-22T13:56:24.816Z,94358.53
2019-04-22T13:58:49.885Z,94363.70
2019-04-22T14:01:12.695Z,94358.36
2019-04-22T14:04:04.892Z,94354.86
2019-04-22T14:06:34.706Z,94355.89
2019-04-22T14:09:07.314Z,94337.04
2019-04-22T14:11:48.915Z,94335.73
2019-04-22T14:14:09.048Z,94330.90
2019-04-22T14:16:38.225Z,94338.84
2019-04-22T14:19:07.970Z,94342.00
2019-04-22T14:21:38.787Z,94355.05
2019-04-22T14:24:10.649Z,94327.02
2019-04-22T14:26:52.388Z,94331.41
2019-04-22T14:29:11.795Z,94325.78
2019-04-22T14:31:42.382Z,94331.03
2019-04-22T14:34:13.484Z,94326.23
2019-04-22T14:36:43.496Z,94326.77
2019-04-22T14:39:12.703Z,94327.75
2019-04-22T14:41:57.577Z,94317.68
2019-04-22T14:47:09.325Z,94305.56
2019-04-22T14:49:36.453Z,94299.23
2019-04-22T14:52:13.320Z,94304.29
2019-04-22T14:54:33.596Z,94297.98
2019-04-22T14:56:48.594Z,94298.23
2019-04-22T14:59:18.902Z,94295.05
2019-04-22T15:01:48.086Z,94291.50
2019-04-22T15:04:19.285Z,94288.56
2019-04-22T15:06:50.311Z,94276.66
2019-04-22T15:09:21.754Z,94276.40
2019-04-22T15:12:03.379Z,94291.44
2019-04-22T15:14:21.642Z,94269.10
2019-04-22T15:17:25.105Z,94267.84
2019-04-22T15:20:16.027Z,94277.33
2019-04-22T15:22:46.470Z,94265.34
2019-04-22T15:25:16.731Z,94266.16
2019-04-22T15:27:46.023Z,94253.28
2019-04-22T15:30:15.434Z,94256.20
2019-04-22T15:32:45.566Z,94256.02
2019-04-22T15:35:15.575Z,94251.91
2019-04-22T15:37:45.600Z,94252.73
2019-04-22T15:40:16.576Z,94250.64
2019-04-22T15:42:48.919Z,94263.43
2019-04-22T15:45:18.923Z,94245.50
2019-04-22T15:47:50.103Z,94248.63
2019-04-22T15:50:19.301Z,94248.36
2019-04-22T15:52:51.922Z,94243.84
2019-04-22T15:55:20.598Z,94247.70
2019-04-22T15:57:49.870Z,94243.20
2019-04-22T16:00:31.939Z,94243.91
2019-04-22T16:02:50.086Z,94246.82
2019-04-22T16:05:20.406Z,94248.63
2019-04-22T16:07:50.668Z,94239.27
2019-04-22T16:10:19.882Z,94244.77
2019-04-22T16:12:57.623Z,94238.31
2019-04-22T16:15:20.465Z,94247.42
2019-04-22T16:17:50.812Z,94241.27
2019-04-22T16:20:21.696Z,94243.41
2019-04-22T16:23:05.624Z,94239.25
2019-04-22T16:26:00.923Z,94236.52
2019-04-22T16:28:31.307Z,94233.48
2019-04-22T16:31:01.473Z,94230.22
2019-04-22T16:33:31.178Z,94235.80
2019-04-22T16:36:00.908Z,94220.19
2019-04-22T16:38:30.985Z,94226.23
2019-04-22T16:41:01.050Z,94225.69
2019-04-22T16:43:30.839Z,94218.47
2019-04-22T16:46:01.482Z,94224.50
2019-04-22T16:48:31.504Z,94220.25
2019-04-22T16:51:02.221Z,94223.04
2019-04-22T16:53:31.530Z,94220.66
2019-04-22T16:56:02.699Z,94207.72
2019-04-22T16:58:34.737Z,94214.20
2019-04-22T17:01:08.225Z,94207.98
2019-04-22T17:03:46.752Z,94211.69
2019-04-22T17:06:37.349Z,94212.88
2019-04-22T17:09:08.982Z,94206.73
2019-04-22T17:11:38.265Z,94201.59
2019-04-22T17:14:08.372Z,94205.34
2019-04-22T17:16:38.733Z,94191.56
2019-04-22T17:19:09.011Z,94191.38
2019-04-22T17:21:39.471Z,94194.70
2019-04-22T17:24:09.811Z,94202.91
2019-04-22T17:26:39.094Z,94202.17
2019-04-22T17:29:08.475Z,94198.16
2019-04-22T17:31:40.881Z,94212.44
2019-04-22T17:34:07.635Z,94205.31
2019-04-22T17:36:36.566Z,94208.08
2019-04-22T17:39:22.857Z,94196.08
2019-04-22T17:41:56.876Z,94205.12
2019-04-22T17:44:41.435Z,94200.72
2019-04-22T17:47:16.329Z,94204.70
2019-04-22T17:50:01.584Z,94200.11
2019-04-22T17:52:25.108Z,94205.36
2019-04-22T17:54:51.934Z,94206.82
2019-04-22T17:57:23.926Z,94195.45
2019-04-22T17:59:55.079Z,94203.41
2019-04-22T18:02:25.150Z,94205.30
2019-04-22T18:04:46.500Z,94204.16
2019-04-22T18:07:35.133Z,94207.33
2019-04-22T18:10:23.726Z,94207.73
2019-04-22T18:12:38.563Z,94206.35
2019-04-22T18:15:04.351Z,94197.52
2019-04-22T18:17:35.441Z,94203.63
2019-04-22T18:19:58.063Z,94203.93
2019-04-22T18:22:28.767Z,94207.77
2019-04-22T18:24:58.363Z,94210.73
2019-04-22T18:27:46.913Z,94204.86
2019-04-22T18:30:01.614Z,94210.13
2019-04-22T18:32:30.120Z,94215.66
2019-04-22T18:35:07.316Z,94212.09
2019-04-22T18:37:37.877Z,94215.58
2019-04-22T18:40:07.974Z,94217.72
2019-04-22T18:42:32.900Z,94219.52
2019-04-22T18:45:23.394Z,94210.47
2019-04-22T18:47:34.208Z,94211.30
2019-04-22T18:50:02.830Z,94215.69
2019-04-22T18:53:16.707Z,94217.45
2019-04-22T18:55:47.129Z,94219.27
2019-04-22T18:58:14.598Z,94218.31
2019-04-22T19:00:34.372Z,94215.26
2019-04-22T19:03:11.198Z,94221.73
2019-04-22T19:05:51.740Z,94221.14
2019-04-22T19:08:28.788Z,94227.55
2019-04-22T19:11:07.378Z,94227.25
2019-04-22T19:16:14.329Z,94218.48
2019-04-22T19:21:03.034Z,94232.52
2019-04-22T19:23:28.125Z,94233.41
2019-04-22T19:25:59.636Z,94238.18
2019-04-22T19:28:35.056Z,94235.82
2019-04-22T19:31:09.361Z,94238.37
2019-04-22T19:33:34.570Z,94241.23
2019-04-22T19:36:05.035Z,94242.38
2019-04-22T19:38:20.638Z,94237.13
2019-04-22T19:41:08.670Z,94243.36
2019-04-22T19:43:32.827Z,94240.98
2019-04-22T19:46:02.255Z,94237.05
2019-04-22T19:48:39.052Z,94240.73
2019-04-22T19:51:12.796Z,94239.48
2019-04-22T19:53:35.651Z,94239.40
2019-04-22T19:56:00.143Z,94234.44
2019-04-22T19:58:35.575Z,94227.89
2019-04-22T20:01:25.443Z,94236.23
2019-04-22T20:04:16.549Z,94237.05
2019-04-22T20:06:41.384Z,94241.34
2019-04-22T20:09:19.396Z,94235.22
2019-04-22T20:11:46.528Z,94236.08
2019-04-22T20:14:16.808Z,94242.48
2019-04-22T20:16:41.387Z,94236.38
2019-04-22T20:19:26.831Z,94232.73
2019-04-22T20:21:49.460Z,94232.13
2019-04-22T20:24:08.005Z,94235.84
2019-04-22T20:26:49.684Z,94233.60
2019-04-22T20:29:27.283Z,94232.83
2019-04-22T20:31:49.467Z,94230.69
2019-04-22T20:34:21.257Z,94229.84
2019-04-22T20:39:20.335Z,94223.03
2019-04-22T20:41:41.100Z,94218.02
2019-04-22T20:44:22.921Z,94211.03
2019-04-22T20:46:53.165Z,94213.52
2019-04-22T20:49:27.643Z,94222.68
2019-04-22T20:51:58.924Z,94215.72
2019-04-22T20:54:22.804Z,94225.83
2019-04-22T20:56:53.377Z,94213.31
2019-04-22T20:59:23.909Z,94214.64
2019-04-22T21:01:54.964Z,94208.64
2019-04-22T21:04:19.638Z,94215.44
2019-04-22T21:06:53.039Z,94213.52
2019-04-22T21:09:28.517Z,94217.95
2019-04-22T21:11:56.530Z,94213.49
2019-04-22T21:14:24.450Z,94209.27
2019-04-22T21:17:00.410Z,94205.12
2019-04-22T21:19:40.409Z,94202.69
2019-04-22T21:22:03.875Z,94200.41
2019-04-22T21:24:29.099Z,94198.20
2019-04-22T21:27:08.942Z,94197.64
2019-04-22T21:29:26.343Z,94194.79
2019-04-22T21:32:01.595Z,94197.30
2019-04-22T21:34:42.573Z,94193.80
2019-04-22T21:37:07.972Z,94189.72
2019-04-22T21:39:33.446Z,94178.03
2019-04-22T21:42:06.554Z,94179.41
2019-04-22T21:44:36.912Z,94178.98
2019-04-22T21:47:10.078Z,94175.95
2019-04-22T21:49:38.989Z,94173.31
2019-04-22T21:52:05.447Z,94161.59
2019-04-22T21:54:36.622Z,94156.41
2019-04-22T21:57:18.856Z,94144.08
2019-04-22T21:59:41.806Z,94146.14
2019-04-22T22:02:25.697Z,94142.38
2019-04-22T22:04:44.539Z,94145.56
2019-04-22T22:07:07.475Z,94150.00
2019-04-22T22:09:47.342Z,94142.45
2019-04-22T22:12:17.123Z,94138.52
2019-04-22T22:14:50.027Z,94143.98
2019-04-22T22:17:18.775Z,94153.21
2019-04-22T22:19:48.539Z,94147.14
2019-04-22T22:23:08.015Z,94150.08
2019-04-22T22:24:54.662Z,94137.26
2019-04-22T22:27:28.191Z,94141.73
2019-04-22T22:32:27.451Z,94134.17
2019-04-22T22:34:57.301Z,94115.78
2019-04-22T22:37:15.910Z,94114.75
2019-04-22T22:39:47.489Z,94116.61
2019-04-22T22:42:10.999Z,94107.38
2019-04-22T22:44:42.504Z,94111.58
2019-04-22T22:47:25.767Z,94109.64
2019-04-22T22:49:59.508Z,94106.26
2019-04-22T22:54:57.535Z,94101.06
2019-04-22T22:57:33.317Z,94096.62
2019-04-22T23:00:01.494Z,94096.91
2019-04-22T23:02:28.710Z,94092.75
2019-04-22T23:05:05.378Z,94097.38
2019-04-22T23:07:34.939Z,94093.55
2019-04-22T23:10:00.319Z,94085.34
2019-04-22T23:12:43.520Z,94086.22
2019-04-22T23:14:58.969Z,94079.29
2019-04-22T23:17:20.417Z,94080.05
2019-04-22T23:19:51.613Z,94075.66
2019-04-22T23:22:25.290Z,94073.62
2019-04-22T23:25:14.024Z,94067.84
2019-04-22T23:27:38.763Z,94064.82
2019-04-22T23:30:36.212Z,94065.63
2019-04-22T23:33:12.885Z,94055.34
2019-04-22T23:35:59.460Z,94059.96
2019-04-22T23:38:33.903Z,94061.33
2019-04-22T23:41:22.329Z,94052.43
2019-04-22T23:43:44.854Z,94051.48
2019-04-22T23:46:06.961Z,94046.55
2019-04-22T23:48:32.839Z,94047.77
2019-04-22T23:51:16.734Z,94044.75
2019-04-22T23:54:00.833Z,94039.23
2019-04-22T23:56:07.847Z,94034.94
2019-04-22T23:58:52.742Z,94034.02
